This is the latest recevied weather packets stored in our database for station/object K4QXN-13. If no packets are shown the sender has not sent any weather packets the latest 10 day(s).
| Time | Temp. | Humidity | Pressure | Rain* | Wind** | Luminosity | Snow |
|---|---|---|---|---|---|---|---|
| 1787755414 | 27.22° C | 82% | 1018.9 hPa | 0 mm | - | - | - |
| 1787755112 | 27.22° C | 80% | 1018.9 hPa | 0 mm | - | - | - |
| 1787754811 | 27.22° C | 80% | 1018.9 hPa | 0 mm | - | - | - |
| 1787754509 | 26.67° C | 83% | 1018.9 hPa | 0 mm | - | - | - |
| 1787754208 | 26.67° C | 81% | 1018.9 hPa | 0 mm | - | - | - |
| 1787753906 | 26.11° C | 82% | 1018.9 hPa | 0 mm | - | - | - |
| 1787753604 | 26.67° C | 81% | 1019.3 hPa | 0 mm | - | - | - |
| 1787753303 | 26.67° C | 81% | 1019.3 hPa | 0 mm | - | - | - |
| 1787753001 | 26.11° C | 83% | 1019.3 hPa | 0 mm | - | - | - |
| 1787752699 | 25° C | 85% | 1019.3 hPa | 0 mm | - | - | - |
| 1787752398 | 25° C | 84% | 1019.3 hPa | 0 mm | - | - | - |
| 1787752096 | 24.44° C | 85% | 1019.3 hPa | 0 mm | - | - | - |
| 1787751794 | 25.56° C | 84% | 1019.3 hPa | 0 mm | - | - | - |
| 1787751493 | 25° C | 85% | 1019.3 hPa | 0 mm | - | - | - |
| 1787751191 | 24.44° C | 86% | 1018.9 hPa | 0 mm | - | - | - |
| 1787750890 | 23.33° C | 87% | 1019.3 hPa | 0 mm | - | - | - |
| 1787750588 | 23.33° C | 87% | 1019.3 hPa | 0 mm | - | - | - |
| 1787750286 | 23.33° C | 86% | 1019.3 hPa | 0 mm | - | - | - |
| 1787749985 | 23.33° C | 87% | 1019.3 hPa | 0 mm | - | - | - |
| 1787749683 | 22.78° C | 88% | 1018.9 hPa | 0 mm | - | - | - |
| 1787749381 | 22.22° C | 90% | 1019.3 hPa | 0 mm | - | - | - |
| 1787749080 | 21.67° C | 91% | 1018.9 hPa | 0 mm | - | - | - |
| 1787748778 | 21.67° C | 92% | 1019.3 hPa | 0 mm | - | - | - |
| 1787748476 | 21.67° C | 93% | 1019.3 hPa | 0 mm | - | - | - |
| 1787748175 | 21.11° C | 93% | 1019.3 hPa | 0 mm | - | - | - |
* Rain latest hour (hover to see other rain measurements)
** Current wind speed in m/s (hover to see current wind gust speed)